createdAt,value
2023-01-21T00:00:06.364Z,1.88
2023-01-21T00:04:07.744Z,3.15
2023-01-21T00:08:09.177Z,3.05
2023-01-21T00:12:10.604Z,1.60
2023-01-21T00:16:12.876Z,2.67
2023-01-21T00:20:14.467Z,2.05
2023-01-21T00:24:16.107Z,2.55
2023-01-21T00:28:17.531Z,3.13
2023-01-21T00:32:19.878Z,2.55
2023-01-21T00:36:22.252Z,1.83
2023-01-21T00:40:24.108Z,2.25
2023-01-21T00:44:25.531Z,2.90
2023-01-21T00:48:28.354Z,2.45
2023-01-21T00:52:29.831Z,2.83
2023-01-21T00:56:31.258Z,2.75
2023-01-21T01:00:32.860Z,2.50
2023-01-21T01:04:34.493Z,1.65
2023-01-21T01:08:35.941Z,2.35
2023-01-21T01:12:37.375Z,2.58
2023-01-21T01:16:38.797Z,2.03
2023-01-21T01:20:43.733Z,2.47
2023-01-21T01:24:45.136Z,4.13
2023-01-21T01:28:46.965Z,3.05
2023-01-21T01:32:48.518Z,2.63
2023-01-21T01:36:50.113Z,2.70
2023-01-21T01:40:53.215Z,2.65
2023-01-21T01:44:57.760Z,3.65
2023-01-21T01:49:03.825Z,4.03
2023-01-21T01:53:05.978Z,3.15
2023-01-21T01:57:11.951Z,3.88
2023-01-21T02:01:13.494Z,3.20
2023-01-21T02:05:14.949Z,5.28
2023-01-21T02:09:16.420Z,5.68
2023-01-21T02:13:18.003Z,6.25
2023-01-21T02:17:46.271Z,5.75
2023-01-21T02:22:29.518Z,5.20
2023-01-21T02:27:07.153Z,4.72
2023-01-21T02:31:46.049Z,4.43
2023-01-21T02:35:50.287Z,3.38
2023-01-21T02:40:01.129Z,3.58
2023-01-21T02:44:23.624Z,4.88
2023-01-21T02:48:35.016Z,3.05
2023-01-21T02:52:36.460Z,4.53
2023-01-21T02:56:38.004Z,3.83
2023-01-21T03:01:13.725Z,5.75
2023-01-21T03:05:48.665Z,4.28
2023-01-21T03:09:50.466Z,7.30
2023-01-21T03:14:28.471Z,6.22
2023-01-21T03:18:37.095Z,2.72
2023-01-21T03:22:40.104Z,3.95
2023-01-21T03:26:47.353Z,3.97
2023-01-21T03:31:00.498Z,3.28
2023-01-21T03:35:05.716Z,3.30
2023-01-21T03:39:15.726Z,3.10
2023-01-21T03:43:17.179Z,3.22
2023-01-21T03:47:32.693Z,3.80
2023-01-21T03:51:38.954Z,3.75
2023-01-21T03:55:40.408Z,3.15
2023-01-21T03:59:41.891Z,3.47
2023-01-21T04:03:43.570Z,2.83
2023-01-21T04:07:45.092Z,4.30
2023-01-21T04:11:46.512Z,3.75
2023-01-21T04:15:47.915Z,2.95
2023-01-21T04:19:49.410Z,3.60
2023-01-21T04:23:50.843Z,4.30
2023-01-21T04:27:52.315Z,2.80
2023-01-21T04:31:53.775Z,3.33
2023-01-21T04:35:59.644Z,4.20
2023-01-21T04:40:01.135Z,3.30
2023-01-21T04:44:02.883Z,5.22
2023-01-21T04:48:04.467Z,3.20
2023-01-21T04:52:06.243Z,3.88
2023-01-21T04:56:07.918Z,3.85
2023-01-21T05:00:09.872Z,4.00
2023-01-21T05:04:11.293Z,3.33
2023-01-21T05:08:12.844Z,2.88
2023-01-21T05:12:14.304Z,3.20
2023-01-21T05:16:15.717Z,2.92
2023-01-21T05:20:17.642Z,4.05
2023-01-21T05:24:19.705Z,3.17
2023-01-21T05:28:21.465Z,2.63
2023-01-21T05:32:23.109Z,2.10
2023-01-21T05:36:24.759Z,1.63
2023-01-21T05:40:26.348Z,2.40
2023-01-21T05:44:27.876Z,1.70
2023-01-21T05:48:29.656Z,2.25
2023-01-21T05:52:31.113Z,2.72
2023-01-21T05:56:32.651Z,2.70
2023-01-21T06:00:34.152Z,2.60
2023-01-21T06:04:35.565Z,3.83
2023-01-21T06:08:37.053Z,2.38
2023-01-21T06:12:38.581Z,2.65
2023-01-21T06:16:40.024Z,3.97
2023-01-21T06:20:41.511Z,2.15
2023-01-21T06:24:43.035Z,2.63
2023-01-21T06:28:44.487Z,1.92
2023-01-21T06:32:45.917Z,2.63
2023-01-21T06:36:47.355Z,2.78
2023-01-21T06:40:48.788Z,2.63
2023-01-21T06:44:50.215Z,3.20
2023-01-21T06:48:53.690Z,3.40
2023-01-21T06:52:57.073Z,3.47
2023-01-21T06:56:58.731Z,3.58
2023-01-21T07:01:00.169Z,3.40
2023-01-21T07:05:01.895Z,2.42
2023-01-21T07:09:04.322Z,2.95
2023-01-21T07:13:05.760Z,2.65
2023-01-21T07:17:07.321Z,2.42
2023-01-21T07:21:08.730Z,3.65
2023-01-21T07:25:10.379Z,1.98
2023-01-21T07:29:11.845Z,2.60
2023-01-21T07:33:13.338Z,2.95
2023-01-21T07:37:15.169Z,4.60
2023-01-21T07:41:16.723Z,5.60
2023-01-21T07:45:18.761Z,3.22
2023-01-21T07:49:20.444Z,5.95
2023-01-21T07:53:21.880Z,3.65
2023-01-21T07:57:23.366Z,4.15
2023-01-21T08:01:28.405Z,7.60
2023-01-21T08:05:29.850Z,8.02
2023-01-21T08:09:31.293Z,7.32
2023-01-21T08:13:32.732Z,5.60
2023-01-21T08:17:34.282Z,6.78
2023-01-21T08:21:35.698Z,4.70
2023-01-21T08:25:38.068Z,3.33
2023-01-21T08:29:39.527Z,3.88
2023-01-21T08:33:41.170Z,3.55
2023-01-21T08:37:42.653Z,3.05
2023-01-21T08:41:44.809Z,2.42
2023-01-21T08:45:46.291Z,2.25
2023-01-21T08:49:47.789Z,1.90
2023-01-21T08:53:50.785Z,1.92
2023-01-21T08:57:54.235Z,1.63
2023-01-21T09:01:56.697Z,1.55
2023-01-21T09:06:01.686Z,1.35
2023-01-21T09:10:04.227Z,1.60
2023-01-21T09:14:05.658Z,1.10
2023-01-21T09:18:07.561Z,1.48
2023-01-21T09:22:09.402Z,1.38
2023-01-21T09:26:19.055Z,1.20
2023-01-21T09:30:20.605Z,2.17
2023-01-21T09:34:22.085Z,1.55
2023-01-21T09:38:25.073Z,1.30
2023-01-21T09:42:31.320Z,1.70
2023-01-21T09:46:59.877Z,1.60
2023-01-21T09:51:13.062Z,1.63
2023-01-21T09:55:49.651Z,1.00
2023-01-21T10:00:17.220Z,0.95
2023-01-21T10:04:46.023Z,1.42
2023-01-21T10:09:01.103Z,1.65
2023-01-21T10:13:30.473Z,1.73
2023-01-21T10:17:41.009Z,1.88
2023-01-21T10:21:53.376Z,1.27
2023-01-21T10:25:57.486Z,1.00
2023-01-21T10:30:07.732Z,0.68
2023-01-21T10:34:18.134Z,1.23
2023-01-21T10:38:28.803Z,1.60
2023-01-21T10:42:51.428Z,0.68
2023-01-21T10:46:57.414Z,2.15
2023-01-21T10:51:21.847Z,1.05
2023-01-21T10:55:38.355Z,0.98
2023-01-21T10:59:41.339Z,2.00
2023-01-21T11:03:47.221Z,1.05
2023-01-21T11:07:49.331Z,0.93
2023-01-21T11:11:50.739Z,0.93
2023-01-21T11:15:54.859Z,0.90
2023-01-21T11:20:01.951Z,0.63
2023-01-21T11:24:18.409Z,0.80
2023-01-21T11:28:25.251Z,2.20
2023-01-21T11:32:29.052Z,0.90
2023-01-21T11:36:30.609Z,1.00
2023-01-21T11:40:32.111Z,1.00
2023-01-21T11:44:34.205Z,0.93
2023-01-21T11:48:35.673Z,1.65
2023-01-21T11:52:37.150Z,0.88
2023-01-21T11:56:39.548Z,0.95
2023-01-21T12:00:48.368Z,1.13
2023-01-21T12:04:55.032Z,1.50
2023-01-21T12:09:01.864Z,1.58
2023-01-21T12:13:15.126Z,1.10
2023-01-21T12:17:50.760Z,1.80
2023-01-21T12:22:11.139Z,3.13
2023-01-21T12:26:35.310Z,3.05
2023-01-21T12:30:50.210Z,2.67
2023-01-21T12:35:08.628Z,2.38
2023-01-21T12:39:19.573Z,1.95
2023-01-21T12:43:27.587Z,1.25
2023-01-21T12:47:36.465Z,2.17
2023-01-21T12:51:49.718Z,2.77
2023-01-21T12:56:08.022Z,2.13
2023-01-21T13:00:10.013Z,1.77
2023-01-21T13:04:28.405Z,1.92
2023-01-21T13:08:56.568Z,0.98
2023-01-21T13:13:28.585Z,1.60
2023-01-21T13:17:35.304Z,0.43
2023-01-21T13:21:48.849Z,0.90
2023-01-21T13:25:54.233Z,2.58
2023-01-21T13:30:23.829Z,1.60
2023-01-21T13:34:55.604Z,1.38
2023-01-21T13:39:14.521Z,1.75
2023-01-21T13:43:54.212Z,1.52
2023-01-21T13:48:01.829Z,2.22
2023-01-21T13:52:12.800Z,1.13
2023-01-21T13:56:30.900Z,3.22
2023-01-21T14:00:44.379Z,2.30
2023-01-21T14:05:16.350Z,1.58
2023-01-21T14:09:24.817Z,1.30
2023-01-21T14:13:54.033Z,2.08
2023-01-21T14:18:05.171Z,2.47
2023-01-21T14:22:25.464Z,2.13
2023-01-21T14:30:46.861Z,1.77
2023-01-21T14:35:03.160Z,0.80
2023-01-21T14:39:19.050Z,1.25
2023-01-21T14:43:32.396Z,1.80
2023-01-21T14:47:51.414Z,2.50
2023-01-21T14:51:52.871Z,3.15
2023-01-21T14:56:23.611Z,3.45
2023-01-21T15:04:41.231Z,2.30
2023-01-21T15:08:47.199Z,0.95
2023-01-21T15:13:01.519Z,2.03
2023-01-21T15:17:03.438Z,1.45
2023-01-21T15:21:34.544Z,0.85
2023-01-21T15:25:36.899Z,1.05
2023-01-21T15:29:54.669Z,1.20
2023-01-21T15:34:02.206Z,1.13
2023-01-21T15:38:13.981Z,1.52
2023-01-21T15:42:47.844Z,1.20
2023-01-21T15:47:09.184Z,0.95
2023-01-21T15:51:41.229Z,1.08
2023-01-21T15:56:21.361Z,1.33
2023-01-21T16:00:31.378Z,0.98
2023-01-21T16:04:44.890Z,1.17
2023-01-21T16:09:04.845Z,1.70
2023-01-21T16:13:25.512Z,2.03
2023-01-21T16:17:56.325Z,0.77
2023-01-21T16:22:02.255Z,1.02
2023-01-21T16:26:03.836Z,1.48
2023-01-21T16:30:11.650Z,1.08
2023-01-21T16:34:13.801Z,1.40
2023-01-21T16:38:21.358Z,1.70
2023-01-21T16:42:33.922Z,1.48
2023-01-21T16:46:38.876Z,0.80
2023-01-21T16:50:48.400Z,1.02
2023-01-21T16:54:52.689Z,1.27
2023-01-21T16:58:55.986Z,1.17
2023-01-21T17:02:58.917Z,1.55
2023-01-21T17:07:00.553Z,0.90
2023-01-21T17:11:10.939Z,1.77
2023-01-21T17:15:40.728Z,1.40
2023-01-21T17:19:43.058Z,0.87
2023-01-21T17:23:47.033Z,1.15
2023-01-21T17:27:48.459Z,2.65
2023-01-21T17:31:58.310Z,0.80
2023-01-21T17:40:32.304Z,1.25
2023-01-21T17:44:34.346Z,1.02
2023-01-21T17:48:39.295Z,1.27
2023-01-21T17:52:40.849Z,1.20
2023-01-21T17:56:55.847Z,1.20
2023-01-21T18:00:59.432Z,0.75
2023-01-21T18:05:00.856Z,1.08
2023-01-21T18:09:03.147Z,1.27
2023-01-21T18:13:04.786Z,1.30
2023-01-21T18:17:06.550Z,0.93
2023-01-21T18:21:18.352Z,1.17
2023-01-21T18:25:20.546Z,0.93
2023-01-21T18:29:22.218Z,1.30
2023-01-21T18:33:24.911Z,0.75
2023-01-21T18:37:26.404Z,1.58
2023-01-21T18:41:27.851Z,1.10
2023-01-21T18:45:29.369Z,0.80
2023-01-21T18:49:30.805Z,1.02
2023-01-21T18:53:32.236Z,1.73
2023-01-21T18:57:33.852Z,1.50
2023-01-21T19:01:35.453Z,0.80
2023-01-21T19:05:39.003Z,1.13
2023-01-21T19:09:45.726Z,1.10
2023-01-21T19:13:47.408Z,0.90
2023-01-21T19:17:50.642Z,0.80
2023-01-21T19:21:53.314Z,0.60
2023-01-21T19:25:57.273Z,1.08
2023-01-21T19:29:58.796Z,1.10
2023-01-21T19:34:00.228Z,0.93
2023-01-21T19:38:05.750Z,0.60
2023-01-21T19:42:10.802Z,1.35
2023-01-21T19:46:12.855Z,0.80
2023-01-21T19:50:17.480Z,1.23
2023-01-21T19:54:19.116Z,0.93
2023-01-21T19:58:23.558Z,2.03
2023-01-21T20:02:25.274Z,0.77
2023-01-21T20:06:29.565Z,0.73
2023-01-21T20:10:31.662Z,1.08
2023-01-21T20:14:33.455Z,1.23
2023-01-21T20:18:34.976Z,0.70
2023-01-21T20:22:36.419Z,0.60
2023-01-21T20:26:38.457Z,0.63
2023-01-21T20:30:39.899Z,1.00
2023-01-21T20:34:41.520Z,1.58
2023-01-21T20:38:43.088Z,1.05
2023-01-21T20:42:45.576Z,0.85
2023-01-21T20:46:47.135Z,1.25
2023-01-21T20:50:48.795Z,1.73
2023-01-21T20:54:50.403Z,0.70
2023-01-21T20:58:52.063Z,0.98
2023-01-21T21:02:55.468Z,0.68
2023-01-21T21:06:56.959Z,0.70
2023-01-21T21:10:58.378Z,0.65
2023-01-21T21:14:59.786Z,0.65
2023-01-21T21:19:01.218Z,1.05
2023-01-21T21:23:02.891Z,1.05
2023-01-21T21:27:04.332Z,1.27
2023-01-21T21:31:05.794Z,0.95
2023-01-21T21:35:33.737Z,1.30
2023-01-21T21:39:35.240Z,1.25
2023-01-21T21:43:39.552Z,1.35
2023-01-21T21:47:59.818Z,0.95
2023-01-21T21:56:05.915Z,1.00
2023-01-21T22:00:08.947Z,0.68
2023-01-21T22:04:10.753Z,1.17
2023-01-21T22:08:15.737Z,1.30
2023-01-21T22:12:17.172Z,1.20
2023-01-21T22:16:27.811Z,1.23
2023-01-21T22:20:29.257Z,0.80
2023-01-21T22:24:30.671Z,1.05
2023-01-21T22:28:32.544Z,0.70
2023-01-21T22:32:33.990Z,2.13
2023-01-21T22:36:35.499Z,1.27
2023-01-21T22:40:40.036Z,1.00
2023-01-21T22:44:41.492Z,0.70
2023-01-21T22:48:42.961Z,0.95
2023-01-21T22:52:44.445Z,1.85
2023-01-21T22:56:52.533Z,1.38
2023-01-21T23:00:55.499Z,1.30
2023-01-21T23:04:57.002Z,0.68
2023-01-21T23:08:58.508Z,1.25
2023-01-21T23:12:59.916Z,0.60
2023-01-21T23:17:01.382Z,1.08
2023-01-21T23:21:07.991Z,1.17
2023-01-21T23:25:12.317Z,1.02
2023-01-21T23:29:13.714Z,0.93
2023-01-21T23:33:16.020Z,1.70
2023-01-21T23:41:47.866Z,1.50
2023-01-21T23:45:49.380Z,0.70
2023-01-21T23:49:50.897Z,1.00
2023-01-21T23:53:52.345Z,0.90
2023-01-21T23:57:53.876Z,1.13
